Time;durP1;ratioP1;P1;durP2;ratioP2;P2;SDS_P1;SDS_P2;PMS_P1;PMS_P2;Temp;Humidity;BMP_temperature;BMP_pressure;BME280_temperature;BME280_humidity;BME280_pressure;Samples;Min_cycle;Max_cycle;Signal;HPM_P1;HPM_P2
2022/05/26 00:02:17;;;;;;;3.45;1.20;;;;;;;;;;5051107;28;20063;-57
2022/05/26 00:04:43;;;;;;;2.30;1.35;;;;;;;;;;5048410;28;20466;-57
2022/05/26 00:07:08;;;;;;;3.20;1.30;;;;;;;;;;5051492;28;20033;-57
2022/05/26 00:09:34;;;;;;;2.65;1.55;;;;;;;;;;5046370;28;20025;-57
2022/05/26 00:12:00;;;;;;;1.98;1.52;;;;;;;;;;5054144;28;20029;-57
2022/05/26 00:14:25;;;;;;;1.33;1.23;;;;;;;;;;5055899;28;20332;-57
2022/05/26 00:16:52;;;;;;;2.28;1.33;;;;;;;;;;5054727;28;20017;-57
2022/05/26 00:19:19;;;;;;;2.30;1.50;;;;;;;;;;5048504;28;20029;-57
2022/05/26 00:21:47;;;;;;;2.05;1.70;;;;;;;;;;5055650;28;20056;-57
2022/05/26 00:24:13;;;;;;;2.25;1.30;;;;;;;;;;5058620;28;20033;-58
2022/05/26 00:26:39;;;;;;;1.73;1.50;;;;;;;;;;5052982;28;20170;-57
2022/05/26 00:29:04;;;;;;;3.08;2.28;;;;;;;;;;5048656;28;20132;-57
2022/05/26 00:31:30;;;;;;;1.73;1.27;;;;;;;;;;5046025;28;20473;-57
2022/05/26 00:33:56;;;;;;;2.17;1.50;;;;;;;;;;5047791;28;20491;-57
2022/05/26 00:36:37;;;;;;;3.15;1.50;;;;;;;;;;5046577;28;20027;-57
2022/05/26 00:39:09;;;;;;;3.30;1.40;;;;;;;;;;5042141;28;20021;-57
2022/05/26 00:41:42;;;;;;;3.05;1.35;;;;;;;;;;5050026;28;20497;-57
2022/05/26 00:44:08;;;;;;;3.17;1.30;;;;;;;;;;5049172;28;20083;-57
2022/05/26 00:46:48;;;;;;;5.32;1.20;;;;;;;;;;5048247;28;20017;-57
2022/05/26 00:49:21;;;;;;;2.30;1.38;;;;;;;;;;5051599;28;20043;-57
2022/05/26 00:51:47;;;;;;;1.70;1.20;;;;;;;;;;5047635;28;20060;-57
2022/05/26 00:54:18;;;;;;;4.20;1.60;;;;;;;;;;5050138;28;20067;-57
2022/05/26 00:56:49;;;;;;;1.80;1.23;;;;;;;;;;5046002;28;20049;-58
2022/05/26 00:59:23;;;;;;;5.32;1.60;;;;;;;;;;5053898;28;20356;-57
2022/05/26 01:01:48;;;;;;;4.40;1.88;;;;;;;;;;5052151;28;20025;-57
2022/05/26 01:04:20;;;;;;;5.35;1.33;;;;;;;;;;5047766;28;20120;-57
2022/05/26 01:06:50;;;;;;;2.60;1.30;;;;;;;;;;5047440;28;20033;-57
2022/05/26 01:09:16;;;;;;;1.75;1.30;;;;;;;;;;5054816;28;20104;-57
2022/05/26 01:11:43;;;;;;;1.67;1.52;;;;;;;;;;5048717;28;20116;-57
2022/05/26 01:14:13;;;;;;;2.47;1.30;;;;;;;;;;5052586;28;20040;-58
2022/05/26 01:16:42;;;;;;;3.40;1.30;;;;;;;;;;5052891;28;20025;-58
2022/05/26 01:19:31;;;;;;;2.40;1.30;;;;;;;;;;5055364;28;20032;-57
2022/05/26 01:22:05;;;;;;;5.40;1.48;;;;;;;;;;5054694;28;20036;-58
2022/05/26 01:25:07;;;;;;;2.97;1.33;;;;;;;;;;5056521;28;20029;-57
2022/05/26 01:27:41;;;;;;;3.50;1.40;;;;;;;;;;5052199;28;20151;-57
2022/05/26 01:30:29;;;;;;;3.47;1.33;;;;;;;;;;5050038;28;20043;-57
2022/05/26 01:32:57;;;;;;;2.80;1.73;;;;;;;;;;5043151;28;20479;-57
2022/05/26 01:35:31;;;;;;;2.45;1.50;;;;;;;;;;5049963;28;20032;-57
2022/05/26 01:38:08;;;;;;;2.05;1.42;;;;;;;;;;5051411;28;20032;-58
2022/05/26 01:40:37;;;;;;;2.00;1.80;;;;;;;;;;5052262;28;20016;-57
2022/05/26 01:43:15;;;;;;;1.80;1.52;;;;;;;;;;5051785;28;20085;-57
2022/05/26 01:45:59;;;;;;;2.03;1.45;;;;;;;;;;5050471;28;20094;-57
2022/05/26 01:48:33;;;;;;;1.88;1.60;;;;;;;;;;5053199;28;20036;-57
2022/05/26 01:51:11;;;;;;;3.00;1.73;;;;;;;;;;5046134;28;20052;-57
2022/05/26 01:53:55;;;;;;;2.60;1.45;;;;;;;;;;5051246;28;20029;-57
2022/05/26 01:56:44;;;;;;;3.75;1.75;;;;;;;;;;5047550;28;20444;-58
2022/05/26 01:59:16;;;;;;;1.88;1.65;;;;;;;;;;5050026;28;20036;-57
2022/05/26 02:01:46;;;;;;;2.15;1.70;;;;;;;;;;5051168;28;20102;-57
2022/05/26 02:04:17;;;;;;;3.42;1.45;;;;;;;;;;5054505;28;20603;-57
2022/05/26 02:06:51;;;;;;;2.20;1.40;;;;;;;;;;5054249;28;20032;-57
2022/05/26 02:09:22;;;;;;;3.63;1.42;;;;;;;;;;5050179;28;20045;-57
2022/05/26 02:11:56;;;;;;;5.63;1.92;;;;;;;;;;5057394;28;20032;-58
2022/05/26 02:14:45;;;;;;;2.72;1.20;;;;;;;;;;5060427;28;20565;-57
2022/05/26 02:17:17;;;;;;;1.67;1.48;;;;;;;;;;5052030;28;20036;-56
2022/05/26 02:19:45;;;;;;;1.70;1.55;;;;;;;;;;5052995;28;20032;-57
2022/05/26 02:22:20;;;;;;;5.20;2.78;;;;;;;;;;5061230;28;20029;-57
2022/05/26 02:24:53;;;;;;;2.30;1.50;;;;;;;;;;5048687;28;20108;-57
2022/05/26 02:27:18;;;;;;;2.58;1.70;;;;;;;;;;5046943;28;20110;-57
2022/05/26 02:29:53;;;;;;;5.15;1.80;;;;;;;;;;5049172;28;20072;-57
2022/05/26 02:32:44;;;;;;;1.30;1.20;;;;;;;;;;5050036;28;20519;-57
2022/05/26 02:35:33;;;;;;;4.68;1.45;;;;;;;;;;5043481;28;20048;-57
2022/05/26 02:38:06;;;;;;;1.55;1.20;;;;;;;;;;5043981;28;20013;-57
2022/05/26 02:40:32;;;;;;;2.72;1.27;;;;;;;;;;5049791;28;20496;-56
2022/05/26 02:43:00;;;;;;;2.20;1.45;;;;;;;;;;5050691;28;20106;-58
2022/05/26 02:46:00;;;;;;;1.45;1.30;;;;;;;;;;5052115;28;20031;-58
2022/05/26 02:48:59;;;;;;;1.77;1.40;;;;;;;;;;5050193;28;20024;-58
2022/05/26 02:51:46;;;;;;;4.15;1.80;;;;;;;;;;5055408;28;20116;-58
2022/05/26 02:54:24;;;;;;;3.35;1.52;;;;;;;;;;5052375;28;20032;-58
2022/05/26 02:57:01;;;;;;;2.90;1.60;;;;;;;;;;5050058;28;20099;-58
2022/05/26 02:59:48;;;;;;;2.33;1.60;;;;;;;;;;5050156;28;20036;-58
2022/05/26 03:02:21;;;;;;;2.65;1.40;;;;;;;;;;5053105;28;20032;-58
2022/05/26 03:05:08;;;;;;;1.60;1.38;;;;;;;;;;5051143;28;20040;-58
2022/05/26 03:07:35;;;;;;;2.90;1.60;;;;;;;;;;5051787;28;20127;-58
2022/05/26 03:10:04;;;;;;;1.48;1.30;;;;;;;;;;5053860;28;20029;-58
2022/05/26 03:12:33;;;;;;;1.55;1.38;;;;;;;;;;5055498;28;20056;-59
2022/05/26 03:14:59;;;;;;;3.97;1.40;;;;;;;;;;5055534;28;20067;-58
2022/05/26 03:17:25;;;;;;;2.70;1.70;;;;;;;;;;5053573;28;20045;-58
2022/05/26 03:19:50;;;;;;;1.85;1.55;;;;;;;;;;5044749;28;20124;-58
2022/05/26 03:22:16;;;;;;;4.35;1.63;;;;;;;;;;5048416;28;20132;-58
2022/05/26 03:24:42;;;;;;;3.63;1.30;;;;;;;;;;5055053;28;20022;-58
2022/05/26 03:27:07;;;;;;;2.00;1.38;;;;;;;;;;5047470;28;20081;-58
2022/05/26 03:29:33;;;;;;;3.63;1.60;;;;;;;;;;5049095;28;20109;-58
2022/05/26 03:31:58;;;;;;;1.60;1.50;;;;;;;;;;5048167;28;20028;-58
2022/05/26 03:42:40;;;;;;;5.18;2.58;;;;;;;;;;5048550;28;20098;-58
2022/05/26 03:45:07;;;;;;;1.67;1.55;;;;;;;;;;5047242;28;20435;-58
2022/05/26 03:47:33;;;;;;;3.63;1.33;;;;;;;;;;5050395;28;20029;-58
2022/05/26 03:49:59;;;;;;;4.30;1.80;;;;;;;;;;5044486;28;20031;-58
2022/05/26 03:52:25;;;;;;;3.97;1.73;;;;;;;;;;5054024;28;20115;-59
2022/05/26 03:54:50;;;;;;;1.88;1.50;;;;;;;;;;5039978;28;20029;-58
2022/05/26 03:57:26;;;;;;;4.10;1.40;;;;;;;;;;5050315;28;20036;-58
2022/05/26 03:59:52;;;;;;;4.22;1.50;;;;;;;;;;5047444;28;20157;-57
2022/05/26 04:02:18;;;;;;;4.00;1.85;;;;;;;;;;5052237;28;20387;-57
2022/05/26 04:04:44;;;;;;;3.03;1.60;;;;;;;;;;5052475;28;20067;-58
2022/05/26 04:07:11;;;;;;;3.10;1.55;;;;;;;;;;5045593;28;20476;-58
2022/05/26 04:09:36;;;;;;;4.05;1.48;;;;;;;;;;5050711;28;20084;-58
2022/05/26 04:12:02;;;;;;;1.73;1.40;;;;;;;;;;5053877;28;20025;-58
2022/05/26 04:14:28;;;;;;;6.13;1.95;;;;;;;;;;5054971;28;20044;-58
2022/05/26 04:16:53;;;;;;;2.15;1.70;;;;;;;;;;5052732;28;20112;-58
2022/05/26 04:19:19;;;;;;;2.97;1.50;;;;;;;;;;5047563;28;20029;-58
2022/05/26 04:24:28;;;;;;;3.13;1.30;;;;;;;;;;5051807;28;20081;-58
2022/05/26 04:26:53;;;;;;;3.67;1.52;;;;;;;;;;5045897;28;20419;-58
2022/05/26 04:29:23;;;;;;;2.85;1.50;;;;;;;;;;5045510;28;20525;-58
2022/05/26 04:31:50;;;;;;;2.95;1.90;;;;;;;;;;5047601;28;20029;-58
2022/05/26 04:34:16;;;;;;;1.65;1.25;;;;;;;;;;5047953;28;20404;-58
2022/05/26 04:36:42;;;;;;;2.15;1.30;;;;;;;;;;5046796;28;20026;-58
2022/05/26 04:39:07;;;;;;;2.53;1.40;;;;;;;;;;5047241;28;20423;-58
2022/05/26 04:41:32;;;;;;;2.25;1.48;;;;;;;;;;5050460;28;20039;-58
2022/05/26 04:43:58;;;;;;;1.95;1.48;;;;;;;;;;5049399;28;20021;-58
2022/05/26 04:46:23;;;;;;;1.75;1.30;;;;;;;;;;5046499;28;20130;-58
2022/05/26 04:48:49;;;;;;;1.90;1.30;;;;;;;;;;5049448;28;20048;-58
2022/05/26 04:51:14;;;;;;;1.40;1.30;;;;;;;;;;5051186;28;20025;-58
2022/05/26 04:53:39;;;;;;;2.80;1.60;;;;;;;;;;5052577;28;20023;-58
2022/05/26 04:56:05;;;;;;;1.40;1.30;;;;;;;;;;5047610;28;20033;-58
2022/05/26 04:58:30;;;;;;;2.17;1.30;;;;;;;;;;5052509;28;20468;-58
2022/05/26 05:00:56;;;;;;;3.75;1.70;;;;;;;;;;5056171;28;20412;-58
2022/05/26 05:03:21;;;;;;;3.45;1.70;;;;;;;;;;5054927;28;20025;-58
2022/05/26 05:05:47;;;;;;;3.35;1.58;;;;;;;;;;5051203;28;20067;-58
2022/05/26 05:08:13;;;;;;;3.40;1.50;;;;;;;;;;5056853;28;20455;-58
2022/05/26 05:10:38;;;;;;;2.10;1.33;;;;;;;;;;5056962;28;20032;-58
2022/05/26 05:13:04;;;;;;;4.45;1.27;;;;;;;;;;5061939;28;20032;-58
2022/05/26 05:15:50;;;;;;;3.78;1.40;;;;;;;;;;5058115;28;20025;-58
2022/05/26 05:18:16;;;;;;;5.03;1.70;;;;;;;;;;5054201;28;20029;-58
2022/05/26 05:20:41;;;;;;;2.03;1.35;;;;;;;;;;5053737;28;20086;-58
2022/05/26 05:23:12;;;;;;;3.15;1.48;;;;;;;;;;5056057;28;20044;-58
2022/05/26 05:25:45;;;;;;;1.48;1.38;;;;;;;;;;5050699;28;20105;-58
2022/05/26 05:28:15;;;;;;;1.95;1.20;;;;;;;;;;5050227;28;20048;-58
2022/05/26 05:30:54;;;;;;;4.70;1.40;;;;;;;;;;5051633;28;20024;-58
2022/05/26 05:33:28;;;;;;;2.75;1.30;;;;;;;;;;5051469;28;20495;-58
2022/05/26 05:36:11;;;;;;;2.83;1.30;;;;;;;;;;5050152;28;20021;-58
2022/05/26 05:38:38;;;;;;;2.47;1.52;;;;;;;;;;5049430;28;20085;-58
2022/05/26 05:41:05;;;;;;;2.80;1.42;;;;;;;;;;5052339;28;20234;-58
2022/05/26 05:43:32;;;;;;;2.40;1.10;;;;;;;;;;5052551;28;20238;-58
2022/05/26 05:45:57;;;;;;;1.98;1.10;;;;;;;;;;5049927;28;20036;-58
2022/05/26 05:48:23;;;;;;;2.90;1.20;;;;;;;;;;5053949;28;20099;-58
2022/05/26 05:50:49;;;;;;;4.60;1.25;;;;;;;;;;5053363;28;20029;-58
2022/05/26 05:53:15;;;;;;;1.95;1.27;;;;;;;;;;5049497;28;20032;-58
2022/05/26 05:55:41;;;;;;;2.70;1.55;;;;;;;;;;5052508;28;20075;-58
2022/05/26 05:58:08;;;;;;;2.75;1.10;;;;;;;;;;5056837;28;20326;-58
2022/05/26 06:00:34;;;;;;;2.58;1.13;;;;;;;;;;5055524;28;20434;-57
2022/05/26 06:03:00;;;;;;;1.67;1.20;;;;;;;;;;5055242;28;20150;-58
2022/05/26 06:05:26;;;;;;;3.28;1.38;;;;;;;;;;5053906;28;20029;-57
2022/05/26 06:07:51;;;;;;;11.48;1.95;;;;;;;;;;5050300;28;20528;-58
2022/05/26 06:10:17;;;;;;;9.32;4.43;;;;;;;;;;5055689;28;20024;-58
2022/05/26 06:12:42;;;;;;;1.88;1.60;;;;;;;;;;5051598;28;20025;-58
2022/05/26 06:15:09;;;;;;;6.47;3.67;;;;;;;;;;5057903;28;20032;-58
2022/05/26 06:17:34;;;;;;;4.32;2.92;;;;;;;;;;5057829;28;20037;-58
2022/05/26 06:20:00;;;;;;;2.22;1.50;;;;;;;;;;5051948;28;20501;-57
2022/05/26 06:22:25;;;;;;;4.53;2.40;;;;;;;;;;5050888;28;20029;-58
2022/05/26 06:24:51;;;;;;;4.50;2.25;;;;;;;;;;5048607;28;20040;-58
2022/05/26 06:30:06;;;;;;;2.28;1.60;;;;;;;;;;5050016;28;20369;-58
2022/05/26 06:38:15;;;;;;;2.47;1.27;;;;;;;;;;5050970;28;20040;-58
2022/05/26 06:40:40;;;;;;;3.15;1.45;;;;;;;;;;5051154;28;20393;-58
2022/05/26 06:43:06;;;;;;;1.50;1.40;;;;;;;;;;5050151;28;20066;-58
2022/05/26 06:45:31;;;;;;;10.10;4.07;;;;;;;;;;5053156;28;20017;-58
2022/05/26 06:47:57;;;;;;;2.45;1.63;;;;;;;;;;5052424;28;20099;-59
2022/05/26 06:50:22;;;;;;;2.60;1.45;;;;;;;;;;5051385;28;20309;-59
2022/05/26 06:52:48;;;;;;;2.63;1.88;;;;;;;;;;5051394;28;20025;-59
2022/05/26 06:55:13;;;;;;;2.97;1.48;;;;;;;;;;5050816;28;20030;-59
2022/05/26 06:57:39;;;;;;;2.15;1.98;;;;;;;;;;5054460;28;20320;-59
2022/05/26 07:00:07;;;;;;;2.90;1.60;;;;;;;;;;5048370;28;20040;-59
2022/05/26 07:02:32;;;;;;;3.08;1.58;;;;;;;;;;5047758;28;20074;-59
2022/05/26 07:04:58;;;;;;;4.80;1.17;;;;;;;;;;5053922;28;20029;-59
2022/05/26 07:07:25;;;;;;;1.80;1.42;;;;;;;;;;5059725;28;20052;-59
2022/05/26 07:09:55;;;;;;;1.30;1.20;;;;;;;;;;5056502;28;20079;-59
2022/05/26 07:12:21;;;;;;;;;;;;;;;;;;5057268;28;20079;-59
2022/05/26 07:14:46;;;;;;;2.50;1.17;;;;;;;;;;5050677;28;19916;-59
2022/05/26 07:17:11;;;;;;;5.22;1.83;;;;;;;;;;5059084;28;20421;-59
2022/05/26 07:19:37;;;;;;;5.75;2.38;;;;;;;;;;5056425;28;20041;-59
2022/05/26 07:22:04;;;;;;;4.32;2.22;;;;;;;;;;5049263;28;20381;-59
2022/05/26 07:24:30;;;;;;;1.67;1.58;;;;;;;;;;5046822;28;20047;-60
2022/05/26 07:26:55;;;;;;;3.33;1.67;;;;;;;;;;5049180;28;20116;-60
2022/05/26 07:29:21;;;;;;;3.47;1.25;;;;;;;;;;5049017;28;20388;-59
2022/05/26 07:31:47;;;;;;;2.35;1.30;;;;;;;;;;5050110;28;20032;-59
2022/05/26 07:34:12;;;;;;;3.05;1.50;;;;;;;;;;5043556;28;20025;-59
2022/05/26 07:42:10;;;;;;;3.42;1.60;;;;;;;;;;5048981;28;20326;-59
2022/05/26 07:44:38;;;;;;;;;;;;;;;;;;5053262;28;20077;-59
2022/05/26 07:47:05;;;;;;;3.85;1.40;;;;;;;;;;5052322;28;20377;-59
2022/05/26 07:49:33;;;;;;;1.67;1.05;;;;;;;;;;5047361;28;20040;-59
2022/05/26 07:52:01;;;;;;;3.83;1.50;;;;;;;;;;5046774;28;20503;-59
2022/05/26 07:54:26;;;;;;;3.83;1.30;;;;;;;;;;5051463;28;20108;-59
2022/05/26 07:56:52;;;;;;;2.67;1.27;;;;;;;;;;5047155;28;20025;-59
2022/05/26 07:59:17;;;;;;;2.25;1.20;;;;;;;;;;5053131;28;20506;-59
2022/05/26 08:01:43;;;;;;;3.15;1.20;;;;;;;;;;5053141;28;20021;-59
2022/05/26 08:04:08;;;;;;;1.25;0.88;;;;;;;;;;5054631;28;20446;-59
2022/05/26 08:06:35;;;;;;;4.60;1.60;;;;;;;;;;5047170;28;20117;-59
2022/05/26 08:09:01;;;;;;;3.85;1.30;;;;;;;;;;5047819;28;20017;-59
2022/05/26 08:11:27;;;;;;;2.60;1.40;;;;;;;;;;5047193;28;20053;-59
2022/05/26 08:13:53;;;;;;;1.42;0.98;;;;;;;;;;5055322;28;20423;-59
2022/05/26 08:16:18;;;;;;;3.53;1.35;;;;;;;;;;5046919;28;20025;-59
2022/05/26 08:18:44;;;;;;;3.67;1.13;;;;;;;;;;5048406;28;21622;-59
2022/05/26 08:21:14;;;;;;;2.10;1.15;;;;;;;;;;5046362;28;20028;-59
2022/05/26 08:23:40;;;;;;;1.65;1.30;;;;;;;;;;5047292;28;20074;-60
2022/05/26 08:26:06;;;;;;;2.22;1.25;;;;;;;;;;5046328;28;20037;-59
2022/05/26 08:28:32;;;;;;;2.53;1.60;;;;;;;;;;5048246;28;20029;-59
2022/05/26 08:30:59;;;;;;;2.17;1.10;;;;;;;;;;5047902;28;20104;-59
2022/05/26 08:33:26;;;;;;;2.47;1.08;;;;;;;;;;5048589;28;20030;-59
2022/05/26 08:36:08;;;;;;;5.10;1.30;;;;;;;;;;5046825;28;20025;-59
2022/05/26 08:38:34;;;;;;;1.83;1.10;;;;;;;;;;5047358;28;20025;-58
2022/05/26 08:41:00;;;;;;;3.38;1.23;;;;;;;;;;5049316;28;20021;-59
2022/05/26 08:43:38;;;;;;;3.00;1.27;;;;;;;;;;5050221;28;20036;-59
2022/05/26 08:46:07;;;;;;;1.98;1.20;;;;;;;;;;5048202;28;20400;-59
2022/05/26 08:48:38;;;;;;;2.25;1.60;;;;;;;;;;5046151;28;20030;-59
2022/05/26 08:51:06;;;;;;;4.28;1.40;;;;;;;;;;5051098;28;20032;-59
2022/05/26 08:53:37;;;;;;;3.00;1.40;;;;;;;;;;5050061;28;20040;-59
2022/05/26 08:56:04;;;;;;;2.03;1.27;;;;;;;;;;5043020;28;20029;-59
2022/05/26 08:59:03;;;;;;;2.83;1.17;;;;;;;;;;5046884;28;20475;-59
2022/05/26 09:01:32;;;;;;;1.38;1.15;;;;;;;;;;5048326;28;20097;-58
2022/05/26 09:03:59;;;;;;;2.55;1.00;;;;;;;;;;5048062;28;20039;-58
2022/05/26 09:06:25;;;;;;;1.58;0.90;;;;;;;;;;5048910;28;20028;-58
2022/05/26 09:14:09;;;;;;;1.40;1.05;;;;;;;;;;5054269;28;20036;-58
2022/05/26 09:16:41;;;;;;;2.30;1.20;;;;;;;;;;5050069;28;20016;-59
2022/05/26 09:19:21;;;;;;;1.15;0.90;;;;;;;;;;5052034;28;20055;-58
2022/05/26 09:21:49;;;;;;;1.98;0.80;;;;;;;;;;5046015;28;20099;-58
2022/05/26 09:24:22;;;;;;;2.38;1.15;;;;;;;;;;5045400;28;20025;-58
2022/05/26 09:26:56;;;;;;;1.27;1.00;;;;;;;;;;5045048;28;20099;-59
2022/05/26 09:29:25;;;;;;;6.43;1.20;;;;;;;;;;5048063;28;20060;-59
2022/05/26 09:31:51;;;;;;;1.33;1.17;;;;;;;;;;5047797;28;20487;-59
2022/05/26 09:34:25;;;;;;;2.35;1.20;;;;;;;;;;5047377;28;20120;-58
2022/05/26 09:37:02;;;;;;;3.05;1.10;;;;;;;;;;5045378;28;20472;-58
2022/05/26 09:39:37;;;;;;;3.03;1.27;;;;;;;;;;5049265;28;20511;-58
2022/05/26 09:42:07;;;;;;;1.02;0.82;;;;;;;;;;5046348;28;20032;-59
2022/05/26 09:44:55;;;;;;;1.77;0.88;;;;;;;;;;5052357;28;20048;-59
2022/05/26 09:47:32;;;;;;;1.67;0.90;;;;;;;;;;5050301;28;20046;-59
2022/05/26 09:50:00;;;;;;;4.22;1.95;;;;;;;;;;5052097;28;20037;-59
2022/05/26 09:52:40;;;;;;;1.08;0.98;;;;;;;;;;5049916;28;20286;-59
2022/05/26 09:55:14;;;;;;;;;;;;;;;;;;5051673;28;20033;-59
2022/05/26 09:57:40;;;;;;;9.05;4.50;;;;;;;;;;5055073;28;19962;-59
2022/05/26 10:00:33;;;;;;;1.95;1.67;;;;;;;;;;5055198;28;20036;-59
2022/05/26 10:03:02;;;;;;;3.53;1.00;;;;;;;;;;5044256;28;20053;-59
2022/05/26 10:05:41;;;;;;;4.17;1.50;;;;;;;;;;5046376;28;20032;-59
2022/05/26 10:08:15;;;;;;;;;;;;;;;;;;5049855;28;20032;-60
2022/05/26 10:10:49;;;;;;;4.10;1.30;;;;;;;;;;5054322;28;19913;-59
2022/05/26 10:13:20;;;;;;;5.95;2.08;;;;;;;;;;5049393;28;20090;-60
2022/05/26 10:16:03;;;;;;;1.45;1.20;;;;;;;;;;5050587;28;20578;-60
2022/05/26 10:19:06;;;;;;;0.82;0.80;;;;;;;;;;5052085;28;20032;-60
2022/05/26 10:21:53;;;;;;;2.25;1.00;;;;;;;;;;5047174;28;20029;-59
2022/05/26 10:24:27;;;;;;;1.85;1.10;;;;;;;;;;5047402;28;20197;-59
2022/05/26 10:27:02;;;;;;;2.35;0.98;;;;;;;;;;5048764;28;20552;-59
2022/05/26 10:29:57;;;;;;;2.17;1.05;;;;;;;;;;5049968;28;20060;-60
2022/05/26 10:32:50;;;;;;;1.83;1.15;;;;;;;;;;5050011;28;20063;-59
2022/05/26 10:35:23;;;;;;;1.48;1.17;;;;;;;;;;5048312;28;20120;-59
2022/05/26 10:37:58;;;;;;;3.85;1.95;;;;;;;;;;5051259;28;20028;-59
2022/05/26 10:40:38;;;;;;;2.97;1.10;;;;;;;;;;5050452;28;20029;-59
2022/05/26 10:43:44;;;;;;;1.95;1.00;;;;;;;;;;5050462;28;20449;-58
2022/05/26 10:46:10;;;;;;;0.90;0.68;;;;;;;;;;5041661;28;20147;-59
2022/05/26 10:48:42;;;;;;;1.92;0.90;;;;;;;;;;5048463;28;20104;-59
2022/05/26 10:51:16;;;;;;;0.95;0.60;;;;;;;;;;5053038;28;20408;-59
2022/05/26 10:53:47;;;;;;;1.10;1.00;;;;;;;;;;5048864;28;20017;-59
2022/05/26 10:56:36;;;;;;;2.95;1.10;;;;;;;;;;5045399;28;20177;-59
2022/05/26 10:59:13;;;;;;;1.70;1.05;;;;;;;;;;5048110;28;20020;-58
2022/05/26 11:02:04;;;;;;;3.78;0.90;;;;;;;;;;5048317;28;20067;-58
2022/05/26 11:04:40;;;;;;;1.60;0.90;;;;;;;;;;5053995;28;20143;-59
2022/05/26 11:07:27;;;;;;;1.48;0.93;;;;;;;;;;5047315;28;20028;-58
2022/05/26 11:09:57;;;;;;;2.15;1.08;;;;;;;;;;5049609;28;20071;-59
2022/05/26 11:12:35;;;;;;;2.08;1.00;;;;;;;;;;5055166;28;20029;-58
2022/05/26 11:18:33;;;;;;;3.33;2.30;;;;;;;;;;5048799;28;20040;-59
2022/05/26 11:20:59;;;;;;;4.50;1.77;;;;;;;;;;5039843;28;20036;-59
2022/05/26 11:23:29;;;;;;;1.88;1.20;;;;;;;;;;5048979;28;20029;-57
2022/05/26 11:26:00;;;;;;;2.35;0.95;;;;;;;;;;5048171;28;20017;-58
2022/05/26 11:28:35;;;;;;;1.88;1.00;;;;;;;;;;5047597;28;20076;-58
2022/05/26 11:36:50;;;;;;;6.55;3.00;;;;;;;;;;5048200;28;20086;-59
2022/05/26 11:39:28;;;;;;;3.25;1.30;;;;;;;;;;5047878;28;20400;-58
2022/05/26 11:42:38;;;;;;;2.17;1.27;;;;;;;;;;5046525;28;20434;-59
2022/05/26 11:45:15;;;;;;;3.65;1.65;;;;;;;;;;5044241;28;20090;-56
2022/05/26 11:47:47;;;;;;;2.78;1.05;;;;;;;;;;5050809;28;20479;-58
2022/05/26 11:50:28;;;;;;;1.73;1.00;;;;;;;;;;5052491;28;20028;-59
2022/05/26 11:52:53;;;;;;;3.28;1.08;;;;;;;;;;5052545;28;20016;-59
2022/05/26 11:55:48;;;;;;;2.90;0.93;;;;;;;;;;5051427;28;20023;-59
2022/05/26 11:58:16;;;;;;;3.63;1.00;;;;;;;;;;5049999;28;20024;-59
2022/05/26 12:00:45;;;;;;;2.80;1.20;;;;;;;;;;5049728;28;20028;-59
2022/05/26 12:03:22;;;;;;;3.00;1.00;;;;;;;;;;5049166;28;20033;-59
2022/05/26 12:06:10;;;;;;;4.38;2.47;;;;;;;;;;5055113;28;20103;-59
2022/05/26 12:08:37;;;;;;;1.85;1.20;;;;;;;;;;5050829;28;20031;-59
2022/05/26 12:11:07;;;;;;;2.65;1.40;;;;;;;;;;5049694;28;20041;-59
2022/05/26 12:13:35;;;;;;;1.98;0.93;;;;;;;;;;5052114;28;20021;-59
2022/05/26 12:16:17;;;;;;;2.10;1.00;;;;;;;;;;5046963;28;20028;-58
2022/05/26 12:18:55;;;;;;;1.33;1.00;;;;;;;;;;5047221;28;20029;-59
2022/05/26 12:21:27;;;;;;;2.60;1.23;;;;;;;;;;5044263;28;20437;-59
2022/05/26 12:23:53;;;;;;;2.70;1.17;;;;;;;;;;5044602;28;20031;-59
2022/05/26 12:26:48;;;;;;;2.13;0.88;;;;;;;;;;5047653;28;20104;-59
2022/05/26 12:29:44;;;;;;;2.13;1.00;;;;;;;;;;5046631;28;20032;-59
2022/05/26 12:32:15;;;;;;;3.42;1.10;;;;;;;;;;5048954;28;20025;-59
2022/05/26 12:35:06;;;;;;;2.58;1.00;;;;;;;;;;5046944;28;20036;-59
2022/05/26 12:37:35;;;;;;;1.70;1.00;;;;;;;;;;5041631;28;20181;-59
2022/05/26 12:40:24;;;;;;;2.00;0.80;;;;;;;;;;5049181;28;20508;-59
2022/05/26 12:43:44;;;;;;;1.27;0.80;;;;;;;;;;5047694;28;20056;-58
2022/05/26 12:46:39;;;;;;;3.25;1.02;;;;;;;;;;5043935;28;20029;-59
2022/05/26 12:49:30;;;;;;;1.50;0.90;;;;;;;;;;5046678;28;20033;-59
2022/05/26 12:52:43;;;;;;;2.72;1.00;;;;;;;;;;5050714;28;20029;-59
2022/05/26 12:55:21;;;;;;;1.50;0.88;;;;;;;;;;5052401;28;20392;-58
2022/05/26 12:57:53;;;;;;;1.58;0.90;;;;;;;;;;5043078;28;20054;-59
2022/05/26 13:00:39;;;;;;;2.47;0.90;;;;;;;;;;5051479;28;20021;-59
2022/05/26 13:03:08;;;;;;;1.65;1.00;;;;;;;;;;5046679;28;20436;-59
2022/05/26 13:05:52;;;;;;;1.42;1.10;;;;;;;;;;5054484;28;20040;-58
2022/05/26 13:08:21;;;;;;;2.33;1.00;;;;;;;;;;5053232;28;20484;-58
2022/05/26 13:10:55;;;;;;;3.50;1.00;;;;;;;;;;5054565;28;20530;-58
2022/05/26 13:13:28;;;;;;;1.67;0.85;;;;;;;;;;5054374;28;20033;-59
2022/05/26 13:15:53;;;;;;;1.25;0.90;;;;;;;;;;5044218;28;20057;-59
2022/05/26 13:18:21;;;;;;;1.95;1.20;;;;;;;;;;5046019;28;20515;-59
2022/05/26 13:20:46;;;;;;;2.67;0.88;;;;;;;;;;5049328;28;20087;-59
2022/05/26 13:23:26;;;;;;;2.17;0.85;;;;;;;;;;5051072;28;20024;-59
2022/05/26 13:25:52;;;;;;;4.47;1.10;;;;;;;;;;5048653;28;20024;-59
2022/05/26 13:28:34;;;;;;;1.15;0.85;;;;;;;;;;5047948;28;20539;-59
2022/05/26 13:33:48;;;;;;;2.15;0.98;;;;;;;;;;5051820;28;20044;-59
2022/05/26 13:36:33;;;;;;;3.05;0.93;;;;;;;;;;5046821;28;20029;-59
2022/05/26 13:39:13;;;;;;;4.43;1.80;;;;;;;;;;5052446;28;20108;-59
2022/05/26 13:41:41;;;;;;;1.60;1.20;;;;;;;;;;5050563;28;20035;-60
2022/05/26 13:44:10;;;;;;;3.70;1.30;;;;;;;;;;5048313;28;20021;-59
2022/05/26 13:46:40;;;;;;;3.28;1.02;;;;;;;;;;5045815;28;20502;-59
2022/05/26 13:49:17;;;;;;;4.40;1.10;;;;;;;;;;5046829;28;20048;-59
2022/05/26 13:51:45;;;;;;;1.50;0.90;;;;;;;;;;5048586;28;20110;-58
2022/05/26 13:54:23;;;;;;;3.45;1.20;;;;;;;;;;5046088;28;20510;-58
2022/05/26 13:56:49;;;;;;;3.58;1.20;;;;;;;;;;5053459;28;20092;-58
2022/05/26 13:59:16;;;;;;;6.00;1.77;;;;;;;;;;5051402;28;20476;-60
2022/05/26 14:01:53;;;;;;;1.77;1.02;;;;;;;;;;5054078;28;20025;-58
2022/05/26 14:04:41;;;;;;;1.73;1.17;;;;;;;;;;5051617;28;20036;-60
2022/05/26 14:07:51;;;;;;;2.75;1.10;;;;;;;;;;5046231;28;20044;-59
2022/05/26 14:10:22;;;;;;;1.85;0.90;;;;;;;;;;5048179;28;20040;-58
2022/05/26 14:13:05;;;;;;;4.60;1.10;;;;;;;;;;5051398;28;20032;-59
2022/05/26 14:16:02;;;;;;;3.63;1.10;;;;;;;;;;5046424;28;20112;-59
2022/05/26 14:18:31;;;;;;;2.40;1.00;;;;;;;;;;5045557;28;20056;-59
2022/05/26 14:21:11;;;;;;;5.83;1.20;;;;;;;;;;5050679;28;20025;-58
2022/05/26 14:23:45;;;;;;;5.00;1.20;;;;;;;;;;5048880;28;20450;-60
2022/05/26 14:26:40;;;;;;;1.10;1.00;;;;;;;;;;5048515;28;20070;-59
2022/05/26 14:29:28;;;;;;;2.97;0.80;;;;;;;;;;5043810;28;20039;-61
2022/05/26 14:32:13;;;;;;;2.13;0.90;;;;;;;;;;5048723;28;20021;-58
2022/05/26 14:34:43;;;;;;;2.63;0.90;;;;;;;;;;5049893;28;20071;-60
2022/05/26 14:37:10;;;;;;;4.13;1.00;;;;;;;;;;5044680;28;20443;-61
2022/05/26 14:39:37;;;;;;;6.93;1.88;;;;;;;;;;5053233;28;20070;-59
2022/05/26 14:42:05;;;;;;;2.72;1.13;;;;;;;;;;5048678;28;20029;-62
2022/05/26 14:44:30;;;;;;;3.72;1.20;;;;;;;;;;5052331;28;20392;-60
2022/05/26 14:46:56;;;;;;;3.75;0.90;;;;;;;;;;5050748;28;20041;-62
2022/05/26 14:49:22;;;;;;;1.70;1.17;;;;;;;;;;5046880;28;20059;-58
2022/05/26 14:51:48;;;;;;;3.10;1.40;;;;;;;;;;5051915;28;20123;-62
2022/05/26 14:56:59;;;;;;;5.18;0.98;;;;;;;;;;5051485;28;20769;-61
2022/05/26 14:59:26;;;;;;;2.30;1.05;;;;;;;;;;5050447;28;20029;-60
2022/05/26 15:01:51;;;;;;;4.43;1.70;;;;;;;;;;5056121;28;20380;-63
2022/05/26 15:04:17;;;;;;;4.43;2.05;;;;;;;;;;5048723;28;20040;-62
2022/05/26 15:06:45;;;;;;;4.00;1.05;;;;;;;;;;5048043;28;20112;-61
2022/05/26 15:09:20;;;;;;;6.47;3.60;;;;;;;;;;5054235;28;20108;-62
2022/05/26 15:11:46;;;;;;;4.68;2.53;;;;;;;;;;5057500;28;20017;-61
2022/05/26 15:14:11;;;;;;;5.50;2.80;;;;;;;;;;5047792;28;20028;-61
2022/05/26 15:16:38;;;;;;;3.75;1.42;;;;;;;;;;5047278;28;20408;-62
2022/05/26 15:19:06;;;;;;;3.35;1.75;;;;;;;;;;5048310;28;20021;-61
2022/05/26 15:21:32;;;;;;;2.60;1.20;;;;;;;;;;5047375;28;20087;-63
2022/05/26 15:23:57;;;;;;;3.38;2.88;;;;;;;;;;5048518;28;20028;-60
2022/05/26 15:26:24;;;;;;;4.05;1.45;;;;;;;;;;5048860;28;20170;-62
2022/05/26 15:28:52;;;;;;;4.95;1.33;;;;;;;;;;5049492;28;20032;-59
2022/05/26 15:31:18;;;;;;;4.10;1.60;;;;;;;;;;5047688;28;20044;-62
2022/05/26 15:33:44;;;;;;;2.90;1.70;;;;;;;;;;5046381;28;20025;-62
2022/05/26 15:36:11;;;;;;;8.38;7.30;;;;;;;;;;5047883;28;20036;-61
2022/05/26 15:38:42;;;;;;;5.22;4.80;;;;;;;;;;5051953;28;20034;-60
2022/05/26 15:41:09;;;;;;;596.60;275.63;;;;;;;;;;5050336;28;20336;-61
2022/05/26 15:43:35;;;;;;;63.83;40.47;;;;;;;;;;5051345;28;20108;-61
2022/05/26 15:46:03;;;;;;;1001.58;694.17;;;;;;;;;;5044345;28;20125;-61
2022/05/26 15:48:28;;;;;;;211.80;117.57;;;;;;;;;;5054381;28;20494;-61
2022/05/26 15:50:55;;;;;;;11.13;6.28;;;;;;;;;;5050104;28;20345;-62
2022/05/26 15:53:21;;;;;;;9.38;6.18;;;;;;;;;;5051097;28;20071;-60
2022/05/26 15:55:47;;;;;;;13.93;6.60;;;;;;;;;;5047513;28;20126;-61
2022/05/26 15:58:18;;;;;;;4.82;2.70;;;;;;;;;;5055259;28;20093;-62